地図

経路データ

SID SEASON NUMBER BASIN SUBBASIN NAME ISO_TIME NATURE LAT LON WMO_WIND WMO_PRES WMO_AGENCY TRACK_TYPE DIST2LAND LANDFALL IFLAG USA_AGENCY USA_ATCF_ID USA_LAT USA_LON USA_RECORD USA_STATUS USA_WIND USA_PRES USA_SSHS USA_R34_NE USA_R34_SE USA_R34_SW USA_R34_NW USA_R50_NE USA_R50_SE USA_R50_SW USA_R50_NW USA_R64_NE USA_R64_SE USA_R64_SW USA_R64_NW USA_POCI USA_ROCI USA_RMW USA_EYE TOKYO_LAT TOKYO_LON TOKYO_GRADE TOKYO_WIND TOKYO_PRES TOKYO_R50_DIR TOKYO_R50_LONG TOKYO_R50_SHORT TOKYO_R30_DIR TOKYO_R30_LONG TOKYO_R30_SHORT TOKYO_LAND CMA_LAT CMA_LON CMA_CAT CMA_WIND CMA_PRES HKO_LAT HKO_LON HKO_CAT HKO_WIND HKO_PRES NEWDELHI_LAT NEWDELHI_LON NEWDELHI_GRADE NEWDELHI_WIND NEWDELHI_PRES NEWDELHI_CI NEWDELHI_DP NEWDELHI_POCI REUNION_LAT REUNION_LON REUNION_TYPE REUNION_WIND REUNION_PRES REUNION_TNUM REUNION_CI REUNION_RMW REUNION_R34_NE REUNION_R34_SE REUNION_R34_SW REUNION_R34_NW REUNION_R50_NE REUNION_R50_SE REUNION_R50_SW REUNION_R50_NW REUNION_R64_NE REUNION_R64_SE REUNION_R64_SW REUNION_R64_NW BOM_LAT BOM_LON BOM_TYPE BOM_WIND BOM_PRES BOM_TNUM BOM_CI BOM_RMW BOM_R34_NE BOM_R34_SE BOM_R34_SW BOM_R34_NW BOM_R50_NE BOM_R50_SE BOM_R50_SW BOM_R50_NW BOM_R64_NE BOM_R64_SE BOM_R64_SW BOM_R64_NW BOM_ROCI BOM_POCI BOM_EYE BOM_POS_METHOD BOM_PRES_METHOD NADI_LAT NADI_LON NADI_CAT NADI_WIND NADI_PRES WELLINGTON_LAT WELLINGTON_LON WELLINGTON_WIND WELLINGTON_PRES DS824_LAT DS824_LON DS824_STAGE DS824_WIND DS824_PRES TD9636_LAT TD9636_LON TD9636_STAGE TD9636_WIND TD9636_PRES TD9635_LAT TD9635_LON TD9635_WIND TD9635_PRES TD9635_ROCI NEUMANN_LAT NEUMANN_LON NEUMANN_CLASS NEUMANN_WIND NEUMANN_PRES MLC_LAT MLC_LON MLC_CLASS MLC_WIND MLC_PRES USA_GUST BOM_GUST BOM_GUST_PER REUNION_GUST REUNION_GUST_PER USA_SEAHGT USA_SEARAD_NE USA_SEARAD_SE USA_SEARAD_SW USA_SEARAD_NW STORM_SPEED STORM_DIR
1882298N20312 1882 38 NA NA NOT_NAMED 1882-10-24 12:00:00 TS 19.5000 -48.0000 main 1664 1664 _____________O -1 19.5000 -48.0000 TD 30 18 314
1882298N20312 1882 38 NA NA NOT_NAMED 1882-10-24 15:00:00 TS 20.1106 -48.6613 main 1685 1678 _____________P -1 20.1106 -48.6613 TD 32 17 315
1882298N20312 1882 38 NA NA NOT_NAMED 1882-10-24 18:00:00 TS 20.7000 -49.3000 main 1678 1668 _____________O -1 20.7000 -49.3000 TS 35 16 315
1882298N20312 1882 38 NA NA NOT_NAMED 1882-10-24 21:00:00 TS 21.2571 -49.9007 main 1672 1621 _____________P -1 21.2571 -49.9007 TS 37 16 315
1882298N20312 1882 38 NA NA NOT_NAMED 1882-10-25 00:00:00 TS 21.8000 -50.5000 main 1621 1572 _____________O -1 21.8000 -50.5000 TS 40 16 313
1882298N20312 1882 38 NA NA NOT_NAMED 1882-10-25 03:00:00 TS 22.3499 -51.1503 main 1562 1520 _____________P -1 22.3499 -51.1503 TS 42 16 312
1882298N20312 1882 38 NA NA NOT_NAMED 1882-10-25 06:00:00 TS 22.9000 -51.8000 main 1520 1470 _____________O -1 22.9000 -51.8000 TS 45 16 310
1882298N20312 1882 38 NA NA NOT_NAMED 1882-10-25 09:00:00 TS 23.3903 -52.4898 main 1470 1442 _____________P -1 23.3903 -52.4898 TS 47 16 315
1882298N20312 1882 38 NA NA NOT_NAMED 1882-10-25 12:00:00 TS 24.0000 -53.0000 main 1447 1447 _____________O -1 24.0000 -53.0000 TS 50 16 339
1882298N20312 1882 38 NA NA NOT_NAMED 1882-10-25 15:00:00 TS 24.8896 -53.1338 main 1480 1480 _____________P -1 24.8896 -53.1338 TS 52 19 357
1882298N20312 1882 38 NA NA NOT_NAMED 1882-10-25 18:00:00 TS 25.9000 -53.1000 main 1534 1534 _____________O -1 25.9000 -53.1000 TS 55 20 358
1882298N20312 1882 38 NA NA NOT_NAMED 1882-10-25 21:00:00 TS 26.8574 -53.2012 main 1585 1585 _____________P -1 26.8574 -53.2012 TS 57 19 357
1882298N20312 1882 38 NA NA NOT_NAMED 1882-10-26 00:00:00 TS 27.8000 -53.2000 main 1644 1644 _____________O -1 27.8000 -53.2000 TS 60 19 7
1882298N20312 1882 38 NA NA NOT_NAMED 1882-10-26 03:00:00 TS 28.7001 -52.9532 main 1721 1721 _____________P -1 28.7001 -52.9532 TS 60 19 16
1882298N20312 1882 38 NA NA NOT_NAMED 1882-10-26 06:00:00 TS 29.6000 -52.6000 main 1816 1793 _____________O -1 29.6000 -52.6000 TS 60 19 14
1882298N20312 1882 38 NA NA NOT_NAMED 1882-10-26 09:00:00 TS 30.5028 -52.4435 main 1793 1694 _____________P -1 30.5028 -52.4435 TS 65 20 15
1882298N20312 1882 38 NA NA NOT_NAMED 1882-10-26 12:00:00 TS 31.5000 -52.0000 main 1684 1570 _____________O -1 31.5000 -52.0000 HU 70 26 33
1882298N20312 1882 38 NA NA NOT_NAMED 1882-10-26 15:00:00 TS 32.6666 -50.7882 main 1560 1458 _____________P -1 32.6666 -50.7882 HU 72 33 42
1882298N20312 1882 38 NA NA NOT_NAMED 1882-10-26 18:00:00 TS 33.9000 -49.4000 main 1448 1346 _____________O -1 33.9000 -49.4000 HU 75 31 38
1882298N20312 1882 38 NA NA NOT_NAMED 1882-10-26 21:00:00 TS 35.0967 -48.5202 main 1338 1240 _____________P -1 35.0967 -48.5202 HU 77 28 30
1882298N20312 1882 38 NA NA NOT_NAMED 1882-10-27 00:00:00 TS 36.3000 -47.7000 main 1232 1153 _____________O -1 36.3000 -47.7000 HU 80 29 33
1882298N20312 1882 38 NA NA NOT_NAMED 1882-10-27 03:00:00 TS 37.5084 -46.5652 main 1147 1087 _____________P -1 37.5084 -46.5652 HU 82 30 37
1882298N20312 1882 38 NA NA NOT_NAMED 1882-10-27 06:00:00 TS 38.7000 -45.4000 main 1083 1020 _____________O -1 38.7000 -45.4000 HU 85 28 33
1882298N20312 1882 38 NA NA NOT_NAMED 1882-10-27 09:00:00 TS 39.8332 -44.6193 main 1025 988 _____________P -1 39.8332 -44.6193 HU 87 27 32
1882298N20312 1882 38 NA NA NOT_NAMED 1882-10-27 12:00:00 TS 41.0000 -43.5000 main 993 992 _____________O -1 41.0000 -43.5000 HU 90 958 35 46
1882298N20312 1882 38 NA NA NOT_NAMED 1882-10-27 15:00:00 TS 42.2418 -41.3134 main 1054 1054 _____________P -1 42.2418 -41.3134 HU 77 43 55
1882298N20312 1882 38 NA NA NOT_NAMED 1882-10-27 18:00:00 TS 43.5000 -38.7000 main 1164 1164 _____________O -1 43.5000 -38.7000 HU 65 44 55
1882298N20312 1882 38 NA NA NOT_NAMED 1882-10-27 21:00:00 TS 44.7443 -36.3391 main 1287 1287 _____________P -1 44.7443 -36.3391 HU 60 42 53
1882298N20312 1882 38 NA NA NOT_NAMED 1882-10-28 00:00:00 ET 46.0000 -34.0000 main 1417 1417 _____________O -1 46.0000 -34.0000 EX 55 41 53
1882298N20312 1882 38 NA NA NOT_NAMED 1882-10-28 03:00:00 ET 47.2460 -31.5900 main 1570 1387 _____________P -1 47.2460 -31.5900 EX 52 41 53
1882298N20312 1882 38 NA NA NOT_NAMED 1882-10-28 06:00:00 ET 48.5000 -29.2000 main 1376 1178 _____________O -1 48.5000 -29.2000 EX 50 40 51
1882298N20312 1882 38 NA NA NOT_NAMED 1882-10-28 09:00:00 ET 49.7584 -26.8616 main 1168 978 _____________P -1 49.7584 -26.8616 EX 47 39 51
1882298N20312 1882 38 NA NA NOT_NAMED 1882-10-28 12:00:00 ET 51.0000 -24.5000 main 969 _____________O -1 51.0000 -24.5000 EX 45 39 50

IBTrACS Databaseについて

本データベースは、米国NOAAが公開する1842年以降の世界の熱帯低気圧のベストトラックデータアーカイブInternational Best Track Archive for Climate Stewardship (IBTrACS)を、ウェブで閲覧しやすい形式に変換したものです。

最終更新日:2021-10-21